createdAt,value
2022-10-14T06:15:18.821Z,1006.65
2022-10-14T06:25:18.639Z,1006.57
2022-10-14T06:35:18.721Z,1006.51
2022-10-14T06:45:18.714Z,1006.54
2022-10-14T06:55:18.579Z,1006.44
2022-10-14T07:05:18.634Z,1006.54
2022-10-14T07:15:18.687Z,1006.55
2022-10-14T07:25:18.763Z,1006.74
2022-10-14T07:35:18.721Z,1006.76
2022-10-14T07:45:18.861Z,1006.79
2022-10-14T07:55:18.792Z,1006.90
2022-10-14T08:05:37.021Z,1006.96
2022-10-14T08:15:18.750Z,1007.06
2022-10-14T08:25:18.821Z,1007.13
2022-10-14T08:35:18.745Z,1006.98
2022-10-14T08:45:18.850Z,1006.98
2022-10-14T08:55:18.786Z,1006.97
2022-10-14T09:05:18.707Z,1006.96
2022-10-14T09:15:18.750Z,1006.79
2022-10-14T09:25:18.921Z,1006.75
2022-10-14T09:35:18.752Z,1006.82
2022-10-14T09:45:18.841Z,1006.70
2022-10-14T09:55:18.844Z,1006.77
2022-10-14T10:05:18.905Z,1006.66
2022-10-14T10:15:18.996Z,1006.45
2022-10-14T10:25:19.050Z,1006.37
2022-10-14T10:35:19.017Z,1006.18
2022-10-14T10:45:18.867Z,1006.06
2022-10-14T10:55:18.920Z,1005.88
2022-10-14T11:05:19.108Z,1005.75
2022-10-14T11:25:18.997Z,1005.59
2022-10-14T11:35:19.064Z,1005.54
2022-10-14T11:45:21.292Z,1005.34
2022-10-14T11:55:19.235Z,1005.38
2022-10-14T12:05:19.015Z,1005.20
2022-10-14T12:15:19.296Z,1005.16
2022-10-14T12:25:19.057Z,1005.09
2022-10-14T12:35:19.211Z,1005.03
2022-10-14T12:45:19.201Z,1005.02
2022-10-14T12:55:19.275Z,1005.00
2022-10-14T13:05:19.229Z,1004.84
2022-10-14T13:15:19.147Z,1004.78
2022-10-14T13:25:19.145Z,1004.64
2022-10-14T13:35:19.227Z,1004.59
2022-10-14T13:45:19.293Z,1004.35
2022-10-14T13:55:19.344Z,1004.15
2022-10-14T14:05:19.370Z,1004.08
2022-10-14T14:15:19.238Z,1003.88
2022-10-14T14:25:34.048Z,1004.01
2022-10-14T14:35:22.072Z,1003.78
2022-10-14T14:45:19.220Z,1003.60
2022-10-14T14:55:19.404Z,1003.57
2022-10-14T15:05:19.293Z,1003.49
2022-10-14T15:15:19.314Z,1003.38
2022-10-14T15:25:19.284Z,1003.38
2022-10-14T15:35:19.268Z,1003.26
2022-10-14T15:45:19.225Z,1003.16
2022-10-14T15:55:19.275Z,1003.19
2022-10-14T16:05:22.414Z,1003.09
2022-10-14T16:15:19.431Z,1003.03
2022-10-14T16:25:19.296Z,1002.93
2022-10-14T16:35:19.391Z,1002.83
2022-10-14T16:45:19.239Z,1002.79
2022-10-14T16:55:19.299Z,1002.82
2022-10-14T17:05:19.269Z,1002.75
2022-10-14T17:15:19.309Z,1002.64
2022-10-14T17:25:19.362Z,1002.60
2022-10-14T17:35:19.340Z,1002.60
2022-10-14T17:45:19.313Z,1002.56
2022-10-14T17:55:19.299Z,1002.50
2022-10-14T18:05:19.380Z,1002.44
2022-10-14T18:15:19.444Z,1002.29
2022-10-14T18:25:19.379Z,1002.11
2022-10-14T18:35:19.614Z,1002.01
2022-10-14T18:45:19.695Z,1001.93
2022-10-14T18:55:19.750Z,1001.76
2022-10-14T19:05:19.958Z,1001.68
2022-10-14T19:15:20.027Z,1001.44
